CheckWX is a tool to help pilots better visualize weather data.  It is not intended as a substitute for an official pre-flight weather briefing.

16:49:10 UTC

VTUQ METAR
Nakhon Ratchasima Airport
Thailand
Current

4 hours ago

VTUQ 211300Z VRB02KT CAVOK 22/17 Q1015 NOSIG
Observed
Nov-21 @ 13:00 UTC
Wind
  • Variable at 2 KTS
Visibility
10,000+ meters
Flight Rules
VFR
Cloud Levels
  • Clear skies
Temperature
22°C / 72°F
Dewpoint
17°C / 63°F
Humidity
73%
Altimeter
29.97" Hg
Pressure
1014.92 hPa
Previous

5 hours ago

VTUQ 211200Z 07003KT CAVOK 24/18 Q1014 NOSIG
Observed
Nov-21 @ 12:00 UTC
Wind
  • 070° at 3 KTS
Visibility
10,000+ meters
Flight Rules
VFR
Cloud Levels
  • Clear skies
Temperature
24°C / 75°F
Dewpoint
18°C / 64°F
Humidity
69%
Altimeter
29.94" Hg
Pressure
1013.92 hPa
Previous

6 hours ago

VTUQ 211100Z 04004KT CAVOK 25/17 Q1013 NOSIG
Observed
Nov-21 @ 11:00 UTC
Wind
  • 040° at 4 KTS
Visibility
10,000+ meters
Flight Rules
VFR
Cloud Levels
  • Clear skies
Temperature
25°C / 77°F
Dewpoint
17°C / 63°F
Humidity
61%
Altimeter
29.91" Hg
Pressure
1012.92 hPa